sensor_id;sensor_type;location;lat;lon;timestamp;pressure;altitude;pressure_sealevel;temperature;humidity
83037;BME280;73029;43.592;1.458;2024-01-16T00:02:24;99227.81;;;13.51;79.70
83037;BME280;73029;43.592;1.458;2024-01-16T00:04:49;99220.53;;;13.56;79.77
83037;BME280;73029;43.592;1.458;2024-01-16T00:07:15;99227.56;;;13.57;79.21
83037;BME280;73029;43.592;1.458;2024-01-16T00:09:40;99214.41;;;13.54;79.19
83037;BME280;73029;43.592;1.458;2024-01-16T00:12:06;99227.63;;;13.55;79.77
83037;BME280;73029;43.592;1.458;2024-01-16T00:14:35;99216.00;;;13.58;79.30
83037;BME280;73029;43.592;1.458;2024-01-16T00:17:02;99202.22;;;13.50;79.56
83037;BME280;73029;43.592;1.458;2024-01-16T00:19:27;99196.09;;;13.47;79.42
83037;BME280;73029;43.592;1.458;2024-01-16T00:21:52;99203.94;;;13.51;79.67
83037;BME280;73029;43.592;1.458;2024-01-16T00:24:18;99190.72;;;13.49;79.48
83037;BME280;73029;43.592;1.458;2024-01-16T00:26:43;99215.13;;;13.57;79.85
83037;BME280;73029;43.592;1.458;2024-01-16T00:29:09;99222.09;;;13.60;79.63
83037;BME280;73029;43.592;1.458;2024-01-16T00:31:37;99203.06;;;13.50;79.72
83037;BME280;73029;43.592;1.458;2024-01-16T00:34:03;99216.78;;;13.60;79.37
83037;BME280;73029;43.592;1.458;2024-01-16T00:36:28;99212.34;;;13.60;79.34
83037;BME280;73029;43.592;1.458;2024-01-16T00:38:54;99206.22;;;13.58;79.35
83037;BME280;73029;43.592;1.458;2024-01-16T00:41:19;99216.59;;;13.64;79.66
83037;BME280;73029;43.592;1.458;2024-01-16T00:43:45;99214.28;;;13.57;79.49
83037;BME280;73029;43.592;1.458;2024-01-16T00:46:10;99206.66;;;13.49;80.00
83037;BME280;73029;43.592;1.458;2024-01-16T00:48:36;99210.59;;;13.59;79.50
83037;BME280;73029;43.592;1.458;2024-01-16T00:51:02;99200.06;;;13.58;79.62
83037;BME280;73029;43.592;1.458;2024-01-16T00:53:27;99201.13;;;13.54;79.24
83037;BME280;73029;43.592;1.458;2024-01-16T00:55:53;99207.25;;;13.56;79.71
83037;BME280;73029;43.592;1.458;2024-01-16T00:58:21;99221.19;;;13.61;79.42
83037;BME280;73029;43.592;1.458;2024-01-16T01:00:46;99210.09;;;13.51;79.26
83037;BME280;73029;43.592;1.458;2024-01-16T01:03:11;99207.25;;;13.56;79.64
83037;BME280;73029;43.592;1.458;2024-01-16T01:05:37;99205.25;;;13.61;79.34
83037;BME280;73029;43.592;1.458;2024-01-16T01:08:03;99204.31;;;13.62;79.82
83037;BME280;73029;43.592;1.458;2024-01-16T01:10:28;99200.72;;;13.63;79.22
83037;BME280;73029;43.592;1.458;2024-01-16T01:12:54;99192.25;;;13.55;79.55
83037;BME280;73029;43.592;1.458;2024-01-16T01:15:22;99200.81;;;13.61;79.39
83037;BME280;73029;43.592;1.458;2024-01-16T01:17:51;99187.25;;;13.47;79.69
83037;BME280;73029;43.592;1.458;2024-01-16T01:20:18;99208.09;;;13.56;79.94
83037;BME280;73029;43.592;1.458;2024-01-16T01:22:44;99211.69;;;13.55;79.74
83037;BME280;73029;43.592;1.458;2024-01-16T01:25:11;99171.28;;;13.28;79.50
83037;BME280;73029;43.592;1.458;2024-01-16T01:27:37;99223.03;;;13.59;79.81
83037;BME280;73029;43.592;1.458;2024-01-16T01:30:02;99217.66;;;13.60;79.89
83037;BME280;73029;43.592;1.458;2024-01-16T01:32:29;99219.44;;;13.60;79.96
83037;BME280;73029;43.592;1.458;2024-01-16T01:34:54;99223.09;;;13.57;79.48
83037;BME280;73029;43.592;1.458;2024-01-16T01:37:20;99216.00;;;13.58;79.46
83037;BME280;73029;43.592;1.458;2024-01-16T01:39:45;99229.78;;;13.66;79.52
83037;BME280;73029;43.592;1.458;2024-01-16T01:42:10;99234.19;;;13.67;79.73
83037;BME280;73029;43.592;1.458;2024-01-16T01:44:36;99224.34;;;13.69;79.80
83037;BME280;73029;43.592;1.458;2024-01-16T01:47:02;99220.75;;;13.70;79.55
83037;BME280;73029;43.592;1.458;2024-01-16T01:49:27;99189.59;;;13.55;79.37
83037;BME280;73029;43.592;1.458;2024-01-16T01:51:54;99215.44;;;13.70;79.58
83037;BME280;73029;43.592;1.458;2024-01-16T01:54:20;99219.53;;;13.77;79.40
83037;BME280;73029;43.592;1.458;2024-01-16T01:56:50;99186.00;;;13.56;79.38
83037;BME280;73029;43.592;1.458;2024-01-16T01:59:18;99209.06;;;13.74;79.42
83037;BME280;73029;43.592;1.458;2024-01-16T02:01:45;99215.03;;;13.79;78.86
83037;BME280;73029;43.592;1.458;2024-01-16T02:04:15;99213.16;;;13.81;78.87
83037;BME280;73029;43.592;1.458;2024-01-16T02:06:42;99194.19;;;13.70;78.75
83037;BME280;73029;43.592;1.458;2024-01-16T02:09:10;99207.19;;;13.76;79.08
83037;BME280;73029;43.592;1.458;2024-01-16T02:11:35;99207.97;;;13.78;79.30
83037;BME280;73029;43.592;1.458;2024-01-16T02:14:00;99200.09;;;13.77;79.25
83037;BME280;73029;43.592;1.458;2024-01-16T02:16:26;99198.50;;;13.72;78.86
83037;BME280;73029;43.592;1.458;2024-01-16T02:18:52;99190.75;;;13.68;78.97
83037;BME280;73029;43.592;1.458;2024-01-16T02:21:21;99202.81;;;13.75;78.83
83037;BME280;73029;43.592;1.458;2024-01-16T02:23:47;99199.38;;;13.73;79.15
83037;BME280;73029;43.592;1.458;2024-01-16T02:26:14;99187.28;;;13.66;78.84
83037;BME280;73029;43.592;1.458;2024-01-16T02:28:41;99191.34;;;13.74;79.12
83037;BME280;73029;43.592;1.458;2024-01-16T02:31:07;99185.16;;;13.74;79.38
83037;BME280;73029;43.592;1.458;2024-01-16T02:33:33;99182.50;;;13.74;79.08
83037;BME280;73029;43.592;1.458;2024-01-16T02:35:58;99185.09;;;13.76;79.21
83037;BME280;73029;43.592;1.458;2024-01-16T02:38:24;99188.59;;;13.76;79.60
83037;BME280;73029;43.592;1.458;2024-01-16T02:40:50;99184.16;;;13.77;79.29
83037;BME280;73029;43.592;1.458;2024-01-16T02:43:16;99181.41;;;13.78;78.86
83037;BME280;73029;43.592;1.458;2024-01-16T02:45:42;99176.09;;;13.78;79.15
83037;BME280;73029;43.592;1.458;2024-01-16T02:48:07;99160.44;;;13.72;78.78
83037;BME280;73029;43.592;1.458;2024-01-16T02:50:33;99171.59;;;13.80;79.42
83037;BME280;73029;43.592;1.458;2024-01-16T02:52:58;99185.09;;;13.76;78.64
83037;BME280;73029;43.592;1.458;2024-01-16T02:55:24;99168.69;;;13.66;78.53
83037;BME280;73029;43.592;1.458;2024-01-16T02:57:49;99196.44;;;13.79;78.93
83037;BME280;73029;43.592;1.458;2024-01-16T03:00:15;99195.50;;;13.80;78.60
83037;BME280;73029;43.592;1.458;2024-01-16T03:02:42;99195.63;;;13.77;79.01
83037;BME280;73029;43.592;1.458;2024-01-16T03:05:09;99183.44;;;13.73;79.14
83037;BME280;73029;43.592;1.458;2024-01-16T03:07:35;99193.63;;;13.82;79.27
83037;BME280;73029;43.592;1.458;2024-01-16T03:10:00;99170.94;;;13.75;78.72
83037;BME280;73029;43.592;1.458;2024-01-16T03:12:26;99185.47;;;13.87;79.22
83037;BME280;73029;43.592;1.458;2024-01-16T03:14:51;99181.13;;;13.84;78.84
83037;BME280;73029;43.592;1.458;2024-01-16T03:17:18;99182.59;;;13.91;78.85
83037;BME280;73029;43.592;1.458;2024-01-16T03:19:44;99179.94;;;13.91;79.00
83037;BME280;73029;43.592;1.458;2024-01-16T03:22:09;99165.00;;;13.89;78.70
83037;BME280;73029;43.592;1.458;2024-01-16T03:24:34;99177.13;;;13.94;78.87
83037;BME280;73029;43.592;1.458;2024-01-16T03:27:01;99172.97;;;13.89;78.28
83037;BME280;73029;43.592;1.458;2024-01-16T03:29:26;99170.38;;;13.87;78.33
83037;BME280;73029;43.592;1.458;2024-01-16T03:31:51;99182.31;;;13.97;78.76
83037;BME280;73029;43.592;1.458;2024-01-16T03:34:18;99182.31;;;13.97;78.74
83037;BME280;73029;43.592;1.458;2024-01-16T03:36:43;99181.31;;;14.00;78.46
83037;BME280;73029;43.592;1.458;2024-01-16T03:39:09;99176.91;;;13.99;78.44
83037;BME280;73029;43.592;1.458;2024-01-16T03:41:34;99185.59;;;14.02;78.13
83037;BME280;73029;43.592;1.458;2024-01-16T03:43:59;99171.75;;;13.96;78.13
83037;BME280;73029;43.592;1.458;2024-01-16T03:46:25;99184.72;;;14.02;78.06
83037;BME280;73029;43.592;1.458;2024-01-16T03:48:51;99173.53;;;13.95;77.98
83037;BME280;73029;43.592;1.458;2024-01-16T03:51:16;99191.84;;;14.01;78.57
83037;BME280;73029;43.592;1.458;2024-01-16T03:53:43;99178.16;;;13.92;78.34
83037;BME280;73029;43.592;1.458;2024-01-16T03:56:08;99193.66;;;14.01;78.12
83037;BME280;73029;43.592;1.458;2024-01-16T03:58:33;99188.53;;;13.96;77.83
83037;BME280;73029;43.592;1.458;2024-01-16T04:00:59;99184.09;;;13.97;77.94
83037;BME280;73029;43.592;1.458;2024-01-16T04:03:27;99187.63;;;13.97;77.87
83037;BME280;73029;43.592;1.458;2024-01-16T04:05:52;99183.31;;;13.95;77.99
83037;BME280;73029;43.592;1.458;2024-01-16T04:08:18;99171.25;;;13.88;78.23
83037;BME280;73029;43.592;1.458;2024-01-16T04:10:43;99174.75;;;13.88;77.80
83037;BME280;73029;43.592;1.458;2024-01-16T04:13:09;99185.03;;;13.96;77.72
83037;BME280;73029;43.592;1.458;2024-01-16T04:15:38;99159.88;;;13.84;77.57
83037;BME280;73029;43.592;1.458;2024-01-16T04:18:03;99182.53;;;13.93;77.51
83037;BME280;73029;43.592;1.458;2024-01-16T04:20:29;99168.50;;;13.89;77.46
83037;BME280;73029;43.592;1.458;2024-01-16T04:22:54;99147.69;;;13.80;77.90
83037;BME280;73029;43.592;1.458;2024-01-16T04:25:19;99152.00;;;13.83;77.50
83037;BME280;73029;43.592;1.458;2024-01-16T04:27:45;99164.69;;;13.76;77.72
83037;BME280;73029;43.592;1.458;2024-01-16T04:30:11;99176.38;;;13.72;77.89
83037;BME280;73029;43.592;1.458;2024-01-16T04:32:37;99181.13;;;13.65;77.60
83037;BME280;73029;43.592;1.458;2024-01-16T04:35:02;99187.16;;;13.69;77.93
83037;BME280;73029;43.592;1.458;2024-01-16T04:37:28;99162.03;;;13.57;77.99
83037;BME280;73029;43.592;1.458;2024-01-16T04:39:54;99172.25;;;13.66;77.83
83037;BME280;73029;43.592;1.458;2024-01-16T04:42:19;99150.66;;;13.54;78.02
83037;BME280;73029;43.592;1.458;2024-01-16T04:44:45;99182.06;;;13.64;78.03
83037;BME280;73029;43.592;1.458;2024-01-16T04:47:10;99172.38;;;13.63;78.19
83037;BME280;73029;43.592;1.458;2024-01-16T04:49:36;99153.13;;;13.58;77.97
83037;BME280;73029;43.592;1.458;2024-01-16T04:52:02;99156.88;;;13.54;77.79
83037;BME280;73029;43.592;1.458;2024-01-16T04:54:28;99160.59;;;13.50;77.94
83037;BME280;73029;43.592;1.458;2024-01-16T04:56:54;99152.69;;;13.49;77.71
83037;BME280;73029;43.592;1.458;2024-01-16T04:59:19;99136.50;;;13.34;78.16
83037;BME280;73029;43.592;1.458;2024-01-16T05:01:44;99163.03;;;13.55;77.78
83037;BME280;73029;43.592;1.458;2024-01-16T05:04:10;99168.34;;;13.55;77.84
83037;BME280;73029;43.592;1.458;2024-01-16T05:06:35;99160.78;;;13.45;77.85
83037;BME280;73029;43.592;1.458;2024-01-16T05:09:01;99172.84;;;13.53;78.45
83037;BME280;73029;43.592;1.458;2024-01-16T05:11:26;99148.06;;;13.33;78.04
83037;BME280;73029;43.592;1.458;2024-01-16T05:13:51;99186.19;;;13.51;78.39
83037;BME280;73029;43.592;1.458;2024-01-16T05:16:25;99182.69;;;13.51;78.64
83037;BME280;73029;43.592;1.458;2024-01-16T05:18:51;99185.41;;;13.49;78.30
83037;BME280;73029;43.592;1.458;2024-01-16T05:21:17;99185.41;;;13.49;78.58
83037;BME280;73029;43.592;1.458;2024-01-16T05:23:43;99193.44;;;13.47;78.53
83037;BME280;73029;43.592;1.458;2024-01-16T05:26:08;99187.34;;;13.45;78.19
83037;BME280;73029;43.592;1.458;2024-01-16T05:28:33;99183.03;;;13.43;78.01
83037;BME280;73029;43.592;1.458;2024-01-16T05:30:59;99186.66;;;13.40;78.23
83037;BME280;73029;43.592;1.458;2024-01-16T05:33:25;99185.88;;;13.38;78.17
83037;BME280;73029;43.592;1.458;2024-01-16T05:35:50;99173.75;;;13.33;77.96
83037;BME280;73029;43.592;1.458;2024-01-16T05:38:16;99181.50;;;13.37;78.33
83037;BME280;73029;43.592;1.458;2024-01-16T05:40:42;99142.69;;;13.14;77.91
83037;BME280;73029;43.592;1.458;2024-01-16T05:43:07;99176.47;;;13.31;78.09
83037;BME280;73029;43.592;1.458;2024-01-16T05:45:33;99167.72;;;13.29;77.68
83037;BME280;73029;43.592;1.458;2024-01-16T05:47:58;99198.16;;;13.41;77.48
83037;BME280;73029;43.592;1.458;2024-01-16T05:50:23;99184.44;;;13.31;77.76
83037;BME280;73029;43.592;1.458;2024-01-16T05:52:49;99174.78;;;13.29;77.63
83037;BME280;73029;43.592;1.458;2024-01-16T05:55:14;99199.31;;;13.35;77.14
83037;BME280;73029;43.592;1.458;2024-01-16T05:57:40;99183.78;;;13.26;77.47
83037;BME280;73029;43.592;1.458;2024-01-16T06:00:06;99204.63;;;13.35;77.83
83037;BME280;73029;43.592;1.458;2024-01-16T06:02:34;99209.19;;;13.32;77.20
83037;BME280;73029;43.592;1.458;2024-01-16T06:05:00;99185.88;;;13.18;77.12
83037;BME280;73029;43.592;1.458;2024-01-16T06:07:25;99164.25;;;13.07;77.61
83037;BME280;73029;43.592;1.458;2024-01-16T06:09:51;99199.03;;;13.21;77.56
83037;BME280;73029;43.592;1.458;2024-01-16T06:12:16;99217.34;;;13.27;77.50
83037;BME280;73029;43.592;1.458;2024-01-16T06:14:41;99189.47;;;13.17;77.08
83037;BME280;73029;43.592;1.458;2024-01-16T06:17:07;99180.69;;;13.15;76.97
83037;BME280;73029;43.592;1.458;2024-01-16T06:19:36;99204.16;;;13.26;76.95
83037;BME280;73029;43.592;1.458;2024-01-16T06:22:01;99199.84;;;13.23;76.76
83037;BME280;73029;43.592;1.458;2024-01-16T06:24:27;99199.84;;;13.23;77.21
83037;BME280;73029;43.592;1.458;2024-01-16T06:26:53;99191.31;;;13.15;76.96
83037;BME280;73029;43.592;1.458;2024-01-16T06:29:18;99189.56;;;13.14;76.98
83037;BME280;73029;43.592;1.458;2024-01-16T06:31:43;99204.38;;;13.19;76.87
83037;BME280;73029;43.592;1.458;2024-01-16T06:34:09;99171.78;;;12.96;76.84
83037;BME280;73029;43.592;1.458;2024-01-16T06:36:34;99201.31;;;13.08;76.55
83037;BME280;73029;43.592;1.458;2024-01-16T06:39:00;99201.31;;;13.08;76.61
83037;BME280;73029;43.592;1.458;2024-01-16T06:41:25;99213.47;;;13.14;76.95
83037;BME280;73029;43.592;1.458;2024-01-16T06:43:51;99208.34;;;13.09;77.01
83037;BME280;73029;43.592;1.458;2024-01-16T06:46:16;99203.25;;;13.05;76.54
83037;BME280;73029;43.592;1.458;2024-01-16T06:48:41;99221.59;;;13.09;76.79
83037;BME280;73029;43.592;1.458;2024-01-16T06:51:07;99211.06;;;13.08;76.62
83037;BME280;73029;43.592;1.458;2024-01-16T06:53:33;99216.38;;;13.08;77.02
83037;BME280;73029;43.592;1.458;2024-01-16T06:55:59;99227.00;;;13.08;76.78
83037;BME280;73029;43.592;1.458;2024-01-16T06:58:24;99212.38;;;12.98;77.26
83037;BME280;73029;43.592;1.458;2024-01-16T07:00:49;99225.53;;;13.01;76.75
83037;BME280;73029;43.592;1.458;2024-01-16T07:03:15;99224.53;;;13.03;76.77
83037;BME280;73029;43.592;1.458;2024-01-16T07:05:40;99223.72;;;13.01;76.86
83037;BME280;73029;43.592;1.458;2024-01-16T07:08:07;99220.22;;;13.01;76.89
83037;BME280;73029;43.592;1.458;2024-01-16T07:10:33;99230.75;;;13.02;76.63
83037;BME280;73029;43.592;1.458;2024-01-16T07:12:59;99221.34;;;12.95;77.04
83037;BME280;73029;43.592;1.458;2024-01-16T07:15:25;99222.94;;;12.99;76.59
83037;BME280;73029;43.592;1.458;2024-01-16T07:17:50;99230.84;;;13.01;76.71
83037;BME280;73029;43.592;1.458;2024-01-16T07:20:16;99225.00;;;12.92;76.49
83037;BME280;73029;43.592;1.458;2024-01-16T07:22:41;99236.13;;;13.01;76.41
83037;BME280;73029;43.592;1.458;2024-01-16T07:25:07;99227.50;;;12.96;76.84
83037;BME280;73029;43.592;1.458;2024-01-16T07:27:33;99245.09;;;12.98;76.76
83037;BME280;73029;43.592;1.458;2024-01-16T07:29:59;99226.03;;;12.88;76.79
83037;BME280;73029;43.592;1.458;2024-01-16T07:32:25;99241.56;;;12.98;76.84
83037;BME280;73029;43.592;1.458;2024-01-16T07:34:50;99242.50;;;12.97;76.69
83037;BME280;73029;43.592;1.458;2024-01-16T07:37:18;99246.00;;;12.97;76.61
83037;BME280;73029;43.592;1.458;2024-01-16T07:39:43;99252.16;;;12.98;76.61
83037;BME280;73029;43.592;1.458;2024-01-16T07:42:09;99256.69;;;12.96;76.66
83037;BME280;73029;43.592;1.458;2024-01-16T07:44:34;99266.38;;;12.97;76.53
83037;BME280;73029;43.592;1.458;2024-01-16T07:46:59;99274.41;;;12.95;76.24
83037;BME280;73029;43.592;1.458;2024-01-16T07:49:25;99259.06;;;12.81;76.70
83037;BME280;73029;43.592;1.458;2024-01-16T07:51:51;99284.16;;;12.94;76.89
83037;BME280;73029;43.592;1.458;2024-01-16T07:54:17;99272.78;;;12.91;76.26
83037;BME280;73029;43.592;1.458;2024-01-16T07:56:42;99294.75;;;12.94;76.75
83037;BME280;73029;43.592;1.458;2024-01-16T07:59:08;99288.59;;;12.94;76.59
83037;BME280;73029;43.592;1.458;2024-01-16T08:01:33;99279.88;;;12.90;76.80
83037;BME280;73029;43.592;1.458;2024-01-16T08:03:58;99284.00;;;12.98;76.75
83037;BME280;73029;43.592;1.458;2024-01-16T08:06:24;99292.03;;;12.96;77.17
83037;BME280;73029;43.592;1.458;2024-01-16T08:08:49;99282.44;;;12.93;77.09
83037;BME280;73029;43.592;1.458;2024-01-16T08:11:15;99301.44;;;13.05;76.55
83037;BME280;73029;43.592;1.458;2024-01-16T08:13:41;99293.31;;;13.08;76.58
83037;BME280;73029;43.592;1.458;2024-01-16T08:16:07;99302.94;;;13.10;76.40
83037;BME280;73029;43.592;1.458;2024-01-16T08:18:33;99286.38;;;13.05;76.38
83037;BME280;73029;43.592;1.458;2024-01-16T08:20:59;99289.19;;;13.01;76.74
83037;BME280;73029;43.592;1.458;2024-01-16T08:23:24;99302.03;;;13.11;76.66
83037;BME280;73029;43.592;1.458;2024-01-16T08:25:50;99309.06;;;13.12;76.61
83037;BME280;73029;43.592;1.458;2024-01-16T08:28:17;99317.81;;;13.14;76.59
83037;BME280;73029;43.592;1.458;2024-01-16T08:30:42;99323.97;;;13.15;76.67
83037;BME280;73029;43.592;1.458;2024-01-16T08:33:08;99313.50;;;13.12;76.74
83037;BME280;73029;43.592;1.458;2024-01-16T08:35:33;99305.13;;;13.01;76.19
83037;BME280;73029;43.592;1.458;2024-01-16T08:37:59;99300.84;;;12.97;76.71
83037;BME280;73029;43.592;1.458;2024-01-16T08:40:24;99319.69;;;13.12;76.61
83037;BME280;73029;43.592;1.458;2024-01-16T08:42:49;99284.25;;;12.91;76.85
83037;BME280;73029;43.592;1.458;2024-01-16T08:45:20;99302.94;;;13.10;76.72
83037;BME280;73029;43.592;1.458;2024-01-16T08:47:46;99310.50;;;13.21;76.71
83037;BME280;73029;43.592;1.458;2024-01-16T08:50:11;99299.16;;;13.16;76.49
83037;BME280;73029;43.592;1.458;2024-01-16T08:52:36;99310.22;;;13.27;76.76
83037;BME280;73029;43.592;1.458;2024-01-16T08:55:02;99316.22;;;13.32;75.99
83037;BME280;73029;43.592;1.458;2024-01-16T08:57:27;99324.06;;;13.35;76.41
83037;BME280;73029;43.592;1.458;2024-01-16T08:59:53;99327.50;;;13.37;76.62
83037;BME280;73029;43.592;1.458;2024-01-16T09:02:18;99324.88;;;13.37;76.79
83037;BME280;73029;43.592;1.458;2024-01-16T09:04:44;99322.03;;;13.42;76.23
83037;BME280;73029;43.592;1.458;2024-01-16T09:07:10;99326.25;;;13.46;76.02
83037;BME280;73029;43.592;1.458;2024-01-16T09:09:36;99325.13;;;13.52;76.60
83037;BME280;73029;43.592;1.458;2024-01-16T09:12:02;99321.44;;;13.56;76.27
83037;BME280;73029;43.592;1.458;2024-01-16T09:14:28;99321.34;;;13.57;76.21
83037;BME280;73029;43.592;1.458;2024-01-16T09:16:54;99322.88;;;13.63;75.85
83037;BME280;73029;43.592;1.458;2024-01-16T09:19:19;99321.75;;;13.68;76.03
83037;BME280;73029;43.592;1.458;2024-01-16T09:21:45;99330.44;;;13.72;74.94
83037;BME280;73029;43.592;1.458;2024-01-16T09:24:10;99315.69;;;13.65;75.04
83037;BME280;73029;43.592;1.458;2024-01-16T09:26:37;99337.28;;;13.78;75.04
83037;BME280;73029;43.592;1.458;2024-01-16T09:29:03;99337.28;;;13.78;74.30
83037;BME280;73029;43.592;1.458;2024-01-16T09:31:28;99330.06;;;13.81;75.53
83037;BME280;73029;43.592;1.458;2024-01-16T09:33:54;99319.81;;;13.72;74.82
83037;BME280;73029;43.592;1.458;2024-01-16T09:36:19;99335.22;;;13.84;74.47
83037;BME280;73029;43.592;1.458;2024-01-16T09:38:44;99305.75;;;13.70;74.60
83037;BME280;73029;43.592;1.458;2024-01-16T09:41:10;99338.81;;;13.83;74.19
83037;BME280;73029;43.592;1.458;2024-01-16T09:43:36;99324.06;;;13.76;74.03
83037;BME280;73029;43.592;1.458;2024-01-16T09:46:04;99329.19;;;13.81;74.39
83037;BME280;73029;43.592;1.458;2024-01-16T09:48:31;99312.50;;;13.77;74.01
83037;BME280;73029;43.592;1.458;2024-01-16T09:50:57;99320.09;;;13.86;74.68
83037;BME280;73029;43.592;1.458;2024-01-16T09:53:23;99328.47;;;13.97;74.47
83037;BME280;73029;43.592;1.458;2024-01-16T09:55:49;99311.59;;;13.98;74.92
83037;BME280;73029;43.592;1.458;2024-01-16T09:58:19;99312.69;;;14.13;74.86
83037;BME280;73029;43.592;1.458;2024-01-16T10:00:44;99318.56;;;14.20;73.47
83037;BME280;73029;43.592;1.458;2024-01-16T10:03:12;99301.84;;;14.18;72.93
83037;BME280;73029;43.592;1.458;2024-01-16T10:05:43;99314.00;;;14.23;73.20
83037;BME280;73029;43.592;1.458;2024-01-16T10:08:09;99303.69;;;14.16;72.63
83037;BME280;73029;43.592;1.458;2024-01-16T10:10:35;99314.78;;;14.25;73.29
83037;BME280;73029;43.592;1.458;2024-01-16T10:13:00;99301.47;;;14.25;72.52
83037;BME280;73029;43.592;1.458;2024-01-16T10:15:26;99290.94;;;14.24;72.57
83037;BME280;73029;43.592;1.458;2024-01-16T10:17:52;99302.56;;;14.40;72.76
83037;BME280;73029;43.592;1.458;2024-01-16T10:20:31;99299.66;;;14.46;72.81
83037;BME280;73029;43.592;1.458;2024-01-16T10:22:57;99285.34;;;14.49;73.11
83037;BME280;73029;43.592;1.458;2024-01-16T10:25:24;99284.78;;;14.61;72.17
83037;BME280;73029;43.592;1.458;2024-01-16T10:28:02;99265.72;;;14.51;71.36
83037;BME280;73029;43.592;1.458;2024-01-16T10:30:28;99300.72;;;14.80;70.29
83037;BME280;73029;43.592;1.458;2024-01-16T10:32:53;99291.31;;;14.73;70.46
83037;BME280;73029;43.592;1.458;2024-01-16T10:35:21;99294.28;;;14.84;70.24
83037;BME280;73029;43.592;1.458;2024-01-16T10:37:52;99287.19;;;14.85;69.94
83037;BME280;73029;43.592;1.458;2024-01-16T10:40:22;99282.09;;;14.80;70.36
83037;BME280;73029;43.592;1.458;2024-01-16T10:42:59;99298.25;;;14.94;70.74
83037;BME280;73029;43.592;1.458;2024-01-16T10:45:24;99294.50;;;14.98;70.18
83037;BME280;73029;43.592;1.458;2024-01-16T10:48:10;99291.19;;;14.93;69.55
83037;BME280;73029;43.592;1.458;2024-01-16T10:50:37;99294.63;;;14.95;70.11
83037;BME280;73029;43.592;1.458;2024-01-16T10:53:04;99292.78;;;14.97;70.13
83037;BME280;73029;43.592;1.458;2024-01-16T10:55:31;99277.81;;;14.95;69.93
83037;BME280;73029;43.592;1.458;2024-01-16T10:57:58;99288.06;;;15.02;69.68
83037;BME280;73029;43.592;1.458;2024-01-16T11:00:28;99271.31;;;15.00;69.66
83037;BME280;73029;43.592;1.458;2024-01-16T11:03:08;99268.84;;;14.97;68.86
83037;BME280;73029;43.592;1.458;2024-01-16T11:05:35;99262.56;;;14.98;69.44
83037;BME280;73029;43.592;1.458;2024-01-16T11:08:02;99272.81;;;15.06;68.83
83037;BME280;73029;43.592;1.458;2024-01-16T11:10:31;99253.47;;;15.02;69.22
83037;BME280;73029;43.592;1.458;2024-01-16T11:13:00;99232.47;;;14.96;69.16
83037;BME280;73029;43.592;1.458;2024-01-16T11:15:27;99253.31;;;15.05;69.02
83037;BME280;73029;43.592;1.458;2024-01-16T11:17:56;99243.69;;;15.03;68.45
83037;BME280;73029;43.592;1.458;2024-01-16T11:20:23;99248.16;;;15.02;69.18
83037;BME280;73029;43.592;1.458;2024-01-16T11:22:50;99233.38;;;14.97;68.91
83037;BME280;73029;43.592;1.458;2024-01-16T11:25:19;99249.63;;;15.08;69.09
83037;BME280;73029;43.592;1.458;2024-01-16T11:27:46;99229.81;;;14.96;68.99
83037;BME280;73029;43.592;1.458;2024-01-16T11:30:30;99245.47;;;15.02;69.20
83037;BME280;73029;43.592;1.458;2024-01-16T11:32:56;99241.34;;;15.14;69.64
83037;BME280;73029;43.592;1.458;2024-01-16T11:35:40;99228.28;;;15.10;68.25
83037;BME280;73029;43.592;1.458;2024-01-16T11:38:17;99235.72;;;15.20;67.73
83037;BME280;73029;43.592;1.458;2024-01-16T11:40:44;99226.78;;;15.21;68.25
83037;BME280;73029;43.592;1.458;2024-01-16T11:46:07;99215.81;;;15.27;68.47
83037;BME280;73029;43.592;1.458;2024-01-16T11:48:33;99210.97;;;15.35;67.64
83037;BME280;73029;43.592;1.458;2024-01-16T11:50:58;99194.38;;;15.30;68.15
83037;BME280;73029;43.592;1.458;2024-01-16T11:58:50;99194.13;;;15.35;67.88
83037;BME280;73029;43.592;1.458;2024-01-16T12:01:20;99202.81;;;15.39;68.01
83037;BME280;73029;43.592;1.458;2024-01-16T12:03:46;99198.19;;;15.42;67.49
83037;BME280;73029;43.592;1.458;2024-01-16T12:06:16;99192.06;;;15.40;67.03
83037;BME280;73029;43.592;1.458;2024-01-16T12:08:41;99172.88;;;15.33;66.43
83037;BME280;73029;43.592;1.458;2024-01-16T12:11:07;99176.09;;;15.40;66.87
83037;BME280;73029;43.592;1.458;2024-01-16T12:13:32;99173.38;;;15.42;67.29
83037;BME280;73029;43.592;1.458;2024-01-16T12:16:04;99165.19;;;15.45;67.56
83037;BME280;73029;43.592;1.458;2024-01-16T12:18:30;99145.06;;;15.39;67.63
83037;BME280;73029;43.592;1.458;2024-01-16T12:20:55;99150.69;;;15.50;67.01
83037;BME280;73029;43.592;1.458;2024-01-16T12:23:21;99150.09;;;15.45;66.89
83037;BME280;73029;43.592;1.458;2024-01-16T12:25:52;99146.47;;;15.46;66.83
83037;BME280;73029;43.592;1.458;2024-01-16T12:28:20;99146.13;;;15.52;66.19
83037;BME280;73029;43.592;1.458;2024-01-16T12:30:49;99150.56;;;15.53;66.72
83037;BME280;73029;43.592;1.458;2024-01-16T12:33:16;99125.34;;;15.43;66.95
83037;BME280;73029;43.592;1.458;2024-01-16T12:35:43;99124.25;;;15.47;66.37
83037;BME280;73029;43.592;1.458;2024-01-16T12:38:12;99131.72;;;15.56;65.68
83037;BME280;73029;43.592;1.458;2024-01-16T12:40:47;99122.97;;;15.54;65.75
83037;BME280;73029;43.592;1.458;2024-01-16T12:43:16;99112.31;;;15.54;65.62
83037;BME280;73029;43.592;1.458;2024-01-16T12:45:43;99091.94;;;15.53;66.37
83037;BME280;73029;43.592;1.458;2024-01-16T12:48:10;99108.59;;;15.74;66.15
83037;BME280;73029;43.592;1.458;2024-01-16T12:50:35;99092.25;;;15.80;66.46
83037;BME280;73029;43.592;1.458;2024-01-16T12:53:10;99099.13;;;16.00;65.72
83037;BME280;73029;43.592;1.458;2024-01-16T12:55:39;99085.88;;;16.14;64.78
83037;BME280;73029;43.592;1.458;2024-01-16T12:58:19;99069.44;;;16.22;64.96
83037;BME280;73029;43.592;1.458;2024-01-16T13:00:45;99064.72;;;16.27;63.22
83037;BME280;73029;43.592;1.458;2024-01-16T13:03:22;99079.13;;;16.39;63.55
83037;BME280;73029;43.592;1.458;2024-01-16T13:05:55;99087.81;;;16.42;62.85